sensor_id;sensor_type;location;lat;lon;timestamp;P1;durP1;ratioP1;P2;durP2;ratioP2
68168;SDS011;54981;50.206;15.978;2022-08-21T00:01:10;24.48;;;18.98;;
68168;SDS011;54981;50.206;15.978;2022-08-21T00:03:38;22.88;;;19.00;;
68168;SDS011;54981;50.206;15.978;2022-08-21T00:06:05;23.48;;;18.85;;
68168;SDS011;54981;50.206;15.978;2022-08-21T00:08:31;25.20;;;18.48;;
68168;SDS011;54981;50.206;15.978;2022-08-21T00:10:56;23.55;;;18.00;;
68168;SDS011;54981;50.206;15.978;2022-08-21T00:13:22;21.60;;;18.17;;
68168;SDS011;54981;50.206;15.978;2022-08-21T00:15:47;20.90;;;16.75;;
68168;SDS011;54981;50.206;15.978;2022-08-21T00:18:13;19.63;;;16.13;;
68168;SDS011;54981;50.206;15.978;2022-08-21T00:20:39;18.02;;;14.75;;
68168;SDS011;54981;50.206;15.978;2022-08-21T00:23:05;16.60;;;13.70;;
68168;SDS011;54981;50.206;15.978;2022-08-21T00:25:31;17.63;;;14.98;;
68168;SDS011;54981;50.206;15.978;2022-08-21T00:27:57;17.33;;;14.40;;
68168;SDS011;54981;50.206;15.978;2022-08-21T00:30:23;16.25;;;13.60;;
68168;SDS011;54981;50.206;15.978;2022-08-21T00:32:50;16.33;;;13.52;;
68168;SDS011;54981;50.206;15.978;2022-08-21T00:35:17;17.70;;;13.25;;
68168;SDS011;54981;50.206;15.978;2022-08-21T00:37:46;15.02;;;12.95;;
68168;SDS011;54981;50.206;15.978;2022-08-21T00:40:13;17.55;;;13.40;;
68168;SDS011;54981;50.206;15.978;2022-08-21T00:42:42;15.00;;;12.50;;
68168;SDS011;54981;50.206;15.978;2022-08-21T00:45:08;13.95;;;12.32;;
68168;SDS011;54981;50.206;15.978;2022-08-21T00:47:35;14.98;;;12.32;;
68168;SDS011;54981;50.206;15.978;2022-08-21T00:50:01;13.45;;;11.75;;
68168;SDS011;54981;50.206;15.978;2022-08-21T00:52:28;12.75;;;11.40;;
68168;SDS011;54981;50.206;15.978;2022-08-21T00:54:56;13.35;;;10.38;;
68168;SDS011;54981;50.206;15.978;2022-08-21T00:57:31;13.68;;;11.63;;
68168;SDS011;54981;50.206;15.978;2022-08-21T01:00:11;13.65;;;10.98;;
68168;SDS011;54981;50.206;15.978;2022-08-21T01:02:43;12.98;;;10.55;;
68168;SDS011;54981;50.206;15.978;2022-08-21T01:05:10;12.35;;;10.95;;
68168;SDS011;54981;50.206;15.978;2022-08-21T01:07:36;12.27;;;10.07;;
68168;SDS011;54981;50.206;15.978;2022-08-21T01:10:03;11.85;;;8.90;;
68168;SDS011;54981;50.206;15.978;2022-08-21T01:12:29;12.10;;;9.75;;
68168;SDS011;54981;50.206;15.978;2022-08-21T01:14:55;9.93;;;8.93;;
68168;SDS011;54981;50.206;15.978;2022-08-21T01:17:20;10.15;;;8.95;;
68168;SDS011;54981;50.206;15.978;2022-08-21T01:19:46;10.82;;;9.10;;
68168;SDS011;54981;50.206;15.978;2022-08-21T01:22:11;10.43;;;9.27;;
68168;SDS011;54981;50.206;15.978;2022-08-21T01:24:37;11.90;;;10.68;;
68168;SDS011;54981;50.206;15.978;2022-08-21T01:27:02;13.93;;;11.57;;
68168;SDS011;54981;50.206;15.978;2022-08-21T01:29:30;15.00;;;12.15;;
68168;SDS011;54981;50.206;15.978;2022-08-21T01:32:19;13.73;;;12.25;;
68168;SDS011;54981;50.206;15.978;2022-08-21T01:34:45;15.23;;;12.68;;
68168;SDS011;54981;50.206;15.978;2022-08-21T01:37:12;14.60;;;11.30;;
68168;SDS011;54981;50.206;15.978;2022-08-21T01:39:39;16.63;;;12.52;;
68168;SDS011;54981;50.206;15.978;2022-08-21T01:42:05;17.55;;;13.40;;
68168;SDS011;54981;50.206;15.978;2022-08-21T01:44:32;15.43;;;12.70;;
68168;SDS011;54981;50.206;15.978;2022-08-21T01:46:58;16.92;;;14.15;;
68168;SDS011;54981;50.206;15.978;2022-08-21T01:49:26;14.57;;;13.07;;
68168;SDS011;54981;50.206;15.978;2022-08-21T01:51:51;17.33;;;13.40;;
68168;SDS011;54981;50.206;15.978;2022-08-21T01:54:17;18.23;;;14.30;;
68168;SDS011;54981;50.206;15.978;2022-08-21T01:56:44;18.85;;;15.40;;
68168;SDS011;54981;50.206;15.978;2022-08-21T01:59:12;18.92;;;15.38;;
68168;SDS011;54981;50.206;15.978;2022-08-21T02:01:38;19.58;;;15.68;;
68168;SDS011;54981;50.206;15.978;2022-08-21T02:04:07;18.70;;;15.45;;
68168;SDS011;54981;50.206;15.978;2022-08-21T02:06:33;20.23;;;15.98;;
68168;SDS011;54981;50.206;15.978;2022-08-21T02:08:59;19.48;;;15.90;;
68168;SDS011;54981;50.206;15.978;2022-08-21T02:11:25;19.73;;;16.35;;
68168;SDS011;54981;50.206;15.978;2022-08-21T02:13:50;20.17;;;16.92;;
68168;SDS011;54981;50.206;15.978;2022-08-21T02:16:15;19.50;;;15.98;;
68168;SDS011;54981;50.206;15.978;2022-08-21T02:18:41;20.70;;;16.58;;
68168;SDS011;54981;50.206;15.978;2022-08-21T02:21:06;20.15;;;16.98;;
68168;SDS011;54981;50.206;15.978;2022-08-21T02:23:32;20.17;;;15.73;;
68168;SDS011;54981;50.206;15.978;2022-08-21T02:25:58;20.10;;;16.35;;
68168;SDS011;54981;50.206;15.978;2022-08-21T02:28:24;19.63;;;15.23;;
68168;SDS011;54981;50.206;15.978;2022-08-21T02:30:50;19.98;;;16.25;;
68168;SDS011;54981;50.206;15.978;2022-08-21T02:33:16;20.52;;;16.63;;
68168;SDS011;54981;50.206;15.978;2022-08-21T02:35:42;18.67;;;15.60;;
68168;SDS011;54981;50.206;15.978;2022-08-21T02:38:10;19.58;;;16.13;;
68168;SDS011;54981;50.206;15.978;2022-08-21T02:40:38;20.00;;;15.45;;
68168;SDS011;54981;50.206;15.978;2022-08-21T02:43:06;20.73;;;16.52;;
68168;SDS011;54981;50.206;15.978;2022-08-21T02:45:32;21.70;;;16.73;;
68168;SDS011;54981;50.206;15.978;2022-08-21T02:48:04;22.65;;;16.23;;
68168;SDS011;54981;50.206;15.978;2022-08-21T02:50:36;20.10;;;16.02;;
68168;SDS011;54981;50.206;15.978;2022-08-21T02:53:04;20.95;;;17.23;;
68168;SDS011;54981;50.206;15.978;2022-08-21T02:55:32;21.48;;;17.23;;
68168;SDS011;54981;50.206;15.978;2022-08-21T02:57:58;22.38;;;18.02;;
68168;SDS011;54981;50.206;15.978;2022-08-21T03:00:25;21.05;;;16.98;;
68168;SDS011;54981;50.206;15.978;2022-08-21T03:02:53;21.35;;;17.42;;
68168;SDS011;54981;50.206;15.978;2022-08-21T03:05:20;22.92;;;18.30;;
68168;SDS011;54981;50.206;15.978;2022-08-21T03:07:46;22.52;;;17.73;;
68168;SDS011;54981;50.206;15.978;2022-08-21T03:10:13;20.35;;;17.70;;
68168;SDS011;54981;50.206;15.978;2022-08-21T03:12:39;23.98;;;18.75;;
68168;SDS011;54981;50.206;15.978;2022-08-21T03:15:09;28.27;;;18.42;;
68168;SDS011;54981;50.206;15.978;2022-08-21T03:17:36;24.02;;;18.10;;
68168;SDS011;54981;50.206;15.978;2022-08-21T03:20:03;22.77;;;18.98;;
68168;SDS011;54981;50.206;15.978;2022-08-21T03:22:30;22.67;;;18.33;;
68168;SDS011;54981;50.206;15.978;2022-08-21T03:24:55;24.45;;;18.88;;
68168;SDS011;54981;50.206;15.978;2022-08-21T03:27:22;21.05;;;18.80;;
68168;SDS011;54981;50.206;15.978;2022-08-21T03:29:47;22.85;;;18.25;;
68168;SDS011;54981;50.206;15.978;2022-08-21T03:32:12;22.02;;;16.75;;
68168;SDS011;54981;50.206;15.978;2022-08-21T03:34:38;20.80;;;17.20;;
68168;SDS011;54981;50.206;15.978;2022-08-21T03:37:04;20.55;;;17.23;;
68168;SDS011;54981;50.206;15.978;2022-08-21T03:39:32;20.40;;;16.73;;
68168;SDS011;54981;50.206;15.978;2022-08-21T03:41:58;18.90;;;15.43;;
68168;SDS011;54981;50.206;15.978;2022-08-21T03:44:24;20.33;;;15.88;;
68168;SDS011;54981;50.206;15.978;2022-08-21T03:46:51;19.27;;;14.43;;
68168;SDS011;54981;50.206;15.978;2022-08-21T03:49:16;15.85;;;14.15;;
68168;SDS011;54981;50.206;15.978;2022-08-21T03:51:42;16.92;;;14.15;;
68168;SDS011;54981;50.206;15.978;2022-08-21T03:54:07;16.20;;;14.10;;
68168;SDS011;54981;50.206;15.978;2022-08-21T03:56:33;15.50;;;13.00;;
68168;SDS011;54981;50.206;15.978;2022-08-21T03:58:58;15.02;;;13.00;;
68168;SDS011;54981;50.206;15.978;2022-08-21T04:01:23;15.15;;;12.73;;
68168;SDS011;54981;50.206;15.978;2022-08-21T04:03:49;16.38;;;12.43;;
68168;SDS011;54981;50.206;15.978;2022-08-21T04:06:14;14.00;;;12.32;;
68168;SDS011;54981;50.206;15.978;2022-08-21T04:08:40;17.33;;;11.32;;
68168;SDS011;54981;50.206;15.978;2022-08-21T04:11:08;18.40;;;12.05;;
68168;SDS011;54981;50.206;15.978;2022-08-21T04:13:35;15.30;;;13.02;;
68168;SDS011;54981;50.206;15.978;2022-08-21T04:16:01;14.35;;;11.82;;
68168;SDS011;54981;50.206;15.978;2022-08-21T04:18:27;15.00;;;12.18;;
68168;SDS011;54981;50.206;15.978;2022-08-21T04:20:52;13.75;;;11.43;;
68168;SDS011;54981;50.206;15.978;2022-08-21T04:23:21;12.70;;;11.25;;
68168;SDS011;54981;50.206;15.978;2022-08-21T04:25:46;12.35;;;10.60;;
68168;SDS011;54981;50.206;15.978;2022-08-21T04:28:12;13.32;;;10.48;;
68168;SDS011;54981;50.206;15.978;2022-08-21T04:30:37;13.25;;;11.30;;
68168;SDS011;54981;50.206;15.978;2022-08-21T04:33:02;14.15;;;10.90;;
68168;SDS011;54981;50.206;15.978;2022-08-21T04:35:29;12.57;;;10.57;;
68168;SDS011;54981;50.206;15.978;2022-08-21T04:37:55;14.25;;;11.32;;
68168;SDS011;54981;50.206;15.978;2022-08-21T04:40:21;15.05;;;11.35;;
68168;SDS011;54981;50.206;15.978;2022-08-21T04:42:50;13.35;;;11.00;;
68168;SDS011;54981;50.206;15.978;2022-08-21T04:45:18;13.70;;;11.05;;
68168;SDS011;54981;50.206;15.978;2022-08-21T04:47:53;12.10;;;10.80;;
68168;SDS011;54981;50.206;15.978;2022-08-21T04:50:22;12.23;;;10.70;;
68168;SDS011;54981;50.206;15.978;2022-08-21T04:52:52;13.68;;;11.15;;
68168;SDS011;54981;50.206;15.978;2022-08-21T04:55:18;12.60;;;11.30;;
68168;SDS011;54981;50.206;15.978;2022-08-21T04:57:45;15.68;;;12.10;;
68168;SDS011;54981;50.206;15.978;2022-08-21T05:00:11;12.32;;;10.98;;
68168;SDS011;54981;50.206;15.978;2022-08-21T05:02:38;12.57;;;11.23;;
68168;SDS011;54981;50.206;15.978;2022-08-21T05:05:04;13.63;;;11.65;;
68168;SDS011;54981;50.206;15.978;2022-08-21T05:07:30;12.77;;;11.40;;
68168;SDS011;54981;50.206;15.978;2022-08-21T05:09:57;11.85;;;10.60;;
68168;SDS011;54981;50.206;15.978;2022-08-21T05:12:24;13.75;;;11.90;;
68168;SDS011;54981;50.206;15.978;2022-08-21T05:14:49;13.82;;;11.38;;
68168;SDS011;54981;50.206;15.978;2022-08-21T05:17:15;14.43;;;11.70;;
68168;SDS011;54981;50.206;15.978;2022-08-21T05:19:40;13.85;;;11.80;;
68168;SDS011;54981;50.206;15.978;2022-08-21T05:22:06;14.35;;;12.10;;
68168;SDS011;54981;50.206;15.978;2022-08-21T05:24:31;14.70;;;11.80;;
68168;SDS011;54981;50.206;15.978;2022-08-21T05:26:57;14.18;;;11.75;;
68168;SDS011;54981;50.206;15.978;2022-08-21T05:29:23;15.55;;;12.43;;
68168;SDS011;54981;50.206;15.978;2022-08-21T05:31:49;15.98;;;14.15;;
68168;SDS011;54981;50.206;15.978;2022-08-21T05:34:17;14.38;;;12.80;;
68168;SDS011;54981;50.206;15.978;2022-08-21T05:36:43;14.40;;;12.90;;
68168;SDS011;54981;50.206;15.978;2022-08-21T05:39:09;15.05;;;12.27;;
68168;SDS011;54981;50.206;15.978;2022-08-21T05:41:35;16.13;;;13.10;;
68168;SDS011;54981;50.206;15.978;2022-08-21T05:44:00;16.48;;;14.05;;
68168;SDS011;54981;50.206;15.978;2022-08-21T05:46:25;16.42;;;14.00;;
68168;SDS011;54981;50.206;15.978;2022-08-21T05:48:51;17.15;;;13.80;;
68168;SDS011;54981;50.206;15.978;2022-08-21T05:51:16;16.60;;;13.02;;
68168;SDS011;54981;50.206;15.978;2022-08-21T05:53:42;15.57;;;12.32;;
68168;SDS011;54981;50.206;15.978;2022-08-21T05:56:08;16.70;;;13.05;;
68168;SDS011;54981;50.206;15.978;2022-08-21T05:58:34;17.70;;;14.35;;
68168;SDS011;54981;50.206;15.978;2022-08-21T06:01:00;14.40;;;12.27;;
68168;SDS011;54981;50.206;15.978;2022-08-21T06:03:28;14.32;;;11.93;;
68168;SDS011;54981;50.206;15.978;2022-08-21T06:05:55;16.92;;;12.65;;
68168;SDS011;54981;50.206;15.978;2022-08-21T06:08:23;13.70;;;12.07;;
68168;SDS011;54981;50.206;15.978;2022-08-21T06:10:49;15.45;;;12.93;;
68168;SDS011;54981;50.206;15.978;2022-08-21T06:13:16;15.68;;;12.68;;
68168;SDS011;54981;50.206;15.978;2022-08-21T06:15:43;13.85;;;12.32;;
68168;SDS011;54981;50.206;15.978;2022-08-21T06:18:08;14.98;;;11.93;;
68168;SDS011;54981;50.206;15.978;2022-08-21T06:20:34;13.57;;;11.98;;
68168;SDS011;54981;50.206;15.978;2022-08-21T06:23:00;14.88;;;13.07;;
68168;SDS011;54981;50.206;15.978;2022-08-21T06:25:26;17.25;;;14.48;;
68168;SDS011;54981;50.206;15.978;2022-08-21T06:27:52;17.38;;;14.50;;
68168;SDS011;54981;50.206;15.978;2022-08-21T06:30:17;18.58;;;14.65;;
68168;SDS011;54981;50.206;15.978;2022-08-21T06:32:43;17.67;;;15.48;;
68168;SDS011;54981;50.206;15.978;2022-08-21T06:35:09;16.95;;;14.27;;
68168;SDS011;54981;50.206;15.978;2022-08-21T06:37:34;16.70;;;14.85;;
68168;SDS011;54981;50.206;15.978;2022-08-21T06:40:00;15.75;;;13.40;;
68168;SDS011;54981;50.206;15.978;2022-08-21T06:42:25;18.40;;;14.20;;
68168;SDS011;54981;50.206;15.978;2022-08-21T06:44:52;16.63;;;13.50;;
68168;SDS011;54981;50.206;15.978;2022-08-21T06:47:18;14.18;;;12.15;;
68168;SDS011;54981;50.206;15.978;2022-08-21T06:49:43;14.82;;;12.63;;
68168;SDS011;54981;50.206;15.978;2022-08-21T06:52:09;14.48;;;11.48;;
68168;SDS011;54981;50.206;15.978;2022-08-21T06:54:36;14.45;;;11.02;;
68168;SDS011;54981;50.206;15.978;2022-08-21T06:57:01;16.58;;;13.32;;
68168;SDS011;54981;50.206;15.978;2022-08-21T06:59:27;10.38;;;8.80;;
68168;SDS011;54981;50.206;15.978;2022-08-21T07:01:52;9.80;;;8.80;;
68168;SDS011;54981;50.206;15.978;2022-08-21T07:04:17;7.63;;;6.82;;
68168;SDS011;54981;50.206;15.978;2022-08-21T07:06:43;6.80;;;6.10;;
68168;SDS011;54981;50.206;15.978;2022-08-21T07:09:08;6.40;;;5.90;;
68168;SDS011;54981;50.206;15.978;2022-08-21T07:11:35;6.93;;;6.13;;
68168;SDS011;54981;50.206;15.978;2022-08-21T07:14:02;7.03;;;6.30;;
68168;SDS011;54981;50.206;15.978;2022-08-21T07:16:27;7.25;;;6.22;;
68168;SDS011;54981;50.206;15.978;2022-08-21T07:18:53;5.90;;;5.30;;
68168;SDS011;54981;50.206;15.978;2022-08-21T07:21:18;9.93;;;5.63;;
68168;SDS011;54981;50.206;15.978;2022-08-21T07:23:45;6.63;;;5.07;;
68168;SDS011;54981;50.206;15.978;2022-08-21T07:26:13;5.85;;;5.35;;
68168;SDS011;54981;50.206;15.978;2022-08-21T07:28:40;6.20;;;5.60;;
68168;SDS011;54981;50.206;15.978;2022-08-21T07:31:05;6.35;;;5.55;;
68168;SDS011;54981;50.206;15.978;2022-08-21T07:33:32;5.57;;;5.03;;
68168;SDS011;54981;50.206;15.978;2022-08-21T07:35:59;6.07;;;5.47;;
68168;SDS011;54981;50.206;15.978;2022-08-21T07:38:24;6.35;;;5.35;;
68168;SDS011;54981;50.206;15.978;2022-08-21T07:40:50;5.70;;;5.15;;
68168;SDS011;54981;50.206;15.978;2022-08-21T07:43:19;6.07;;;5.47;;
68168;SDS011;54981;50.206;15.978;2022-08-21T07:45:44;5.75;;;5.25;;
68168;SDS011;54981;50.206;15.978;2022-08-21T07:48:10;5.63;;;5.13;;
68168;SDS011;54981;50.206;15.978;2022-08-21T07:50:36;5.85;;;5.28;;
68168;SDS011;54981;50.206;15.978;2022-08-21T07:53:02;6.47;;;5.43;;
68168;SDS011;54981;50.206;15.978;2022-08-21T07:55:27;5.60;;;5.10;;
68168;SDS011;54981;50.206;15.978;2022-08-21T07:57:53;5.25;;;4.72;;
68168;SDS011;54981;50.206;15.978;2022-08-21T08:00:20;5.50;;;5.00;;
68168;SDS011;54981;50.206;15.978;2022-08-21T08:02:48;5.72;;;5.10;;
68168;SDS011;54981;50.206;15.978;2022-08-21T08:05:15;6.55;;;4.03;;
68168;SDS011;54981;50.206;15.978;2022-08-21T08:07:42;5.88;;;4.75;;
68168;SDS011;54981;50.206;15.978;2022-08-21T08:10:08;5.93;;;5.40;;
68168;SDS011;54981;50.206;15.978;2022-08-21T08:12:35;5.75;;;5.13;;
68168;SDS011;54981;50.206;15.978;2022-08-21T08:15:02;4.82;;;4.43;;
68168;SDS011;54981;50.206;15.978;2022-08-21T08:17:29;5.55;;;5.05;;
68168;SDS011;54981;50.206;15.978;2022-08-21T08:19:54;4.95;;;4.45;;
68168;SDS011;54981;50.206;15.978;2022-08-21T08:22:21;6.40;;;4.65;;
68168;SDS011;54981;50.206;15.978;2022-08-21T08:24:49;5.95;;;5.28;;
68168;SDS011;54981;50.206;15.978;2022-08-21T08:27:15;5.68;;;5.15;;
68168;SDS011;54981;50.206;15.978;2022-08-21T08:29:41;6.03;;;5.53;;
68168;SDS011;54981;50.206;15.978;2022-08-21T08:32:07;6.63;;;5.68;;
68168;SDS011;54981;50.206;15.978;2022-08-21T08:34:33;6.10;;;5.50;;
68168;SDS011;54981;50.206;15.978;2022-08-21T08:36:59;6.60;;;5.85;;
68168;SDS011;54981;50.206;15.978;2022-08-21T08:39:25;7.38;;;5.63;;
68168;SDS011;54981;50.206;15.978;2022-08-21T08:41:54;6.85;;;6.15;;
68168;SDS011;54981;50.206;15.978;2022-08-21T08:44:28;7.13;;;6.45;;
68168;SDS011;54981;50.206;15.978;2022-08-21T08:46:54;6.70;;;6.10;;
68168;SDS011;54981;50.206;15.978;2022-08-21T08:55:11;7.60;;;6.60;;
68168;SDS011;54981;50.206;15.978;2022-08-21T08:57:37;8.95;;;6.22;;
68168;SDS011;54981;50.206;15.978;2022-08-21T09:00:06;7.88;;;6.85;;
68168;SDS011;54981;50.206;15.978;2022-08-21T09:02:37;7.90;;;6.47;;
68168;SDS011;54981;50.206;15.978;2022-08-21T09:05:04;6.80;;;6.10;;
68168;SDS011;54981;50.206;15.978;2022-08-21T09:10:19;8.73;;;7.40;;
68168;SDS011;54981;50.206;15.978;2022-08-21T09:15:32;8.30;;;6.18;;
68168;SDS011;54981;50.206;15.978;2022-08-21T09:23:29;8.43;;;7.32;;
68168;SDS011;54981;50.206;15.978;2022-08-21T09:26:18;7.65;;;6.85;;
68168;SDS011;54981;50.206;15.978;2022-08-21T09:28:47;7.82;;;7.03;;
68168;SDS011;54981;50.206;15.978;2022-08-21T09:36:25;6.93;;;6.22;;
68168;SDS011;54981;50.206;15.978;2022-08-21T09:38:56;8.45;;;7.55;;
68168;SDS011;54981;50.206;15.978;2022-08-21T09:41:26;10.30;;;6.68;;
68168;SDS011;54981;50.206;15.978;2022-08-21T09:43:54;7.40;;;6.70;;
68168;SDS011;54981;50.206;15.978;2022-08-21T09:46:20;6.70;;;5.90;;
68168;SDS011;54981;50.206;15.978;2022-08-21T09:48:48;7.40;;;6.70;;
68168;SDS011;54981;50.206;15.978;2022-08-21T09:51:20;7.18;;;6.25;;
68168;SDS011;54981;50.206;15.978;2022-08-21T09:53:49;7.40;;;6.18;;
68168;SDS011;54981;50.206;15.978;2022-08-21T09:56:19;7.85;;;7.15;;
68168;SDS011;54981;50.206;15.978;2022-08-21T09:59:18;6.25;;;5.65;;
68168;SDS011;54981;50.206;15.978;2022-08-21T10:01:56;6.85;;;5.97;;
68168;SDS011;54981;50.206;15.978;2022-08-21T10:04:33;7.53;;;6.00;;
68168;SDS011;54981;50.206;15.978;2022-08-21T10:07:10;6.88;;;5.80;;
68168;SDS011;54981;50.206;15.978;2022-08-21T10:09:39;5.47;;;4.95;;
68168;SDS011;54981;50.206;15.978;2022-08-21T10:12:21;6.00;;;5.40;;
68168;SDS011;54981;50.206;15.978;2022-08-21T10:14:52;6.53;;;5.85;;
68168;SDS011;54981;50.206;15.978;2022-08-21T10:17:43;5.95;;;5.45;;
68168;SDS011;54981;50.206;15.978;2022-08-21T10:28:10;6.82;;;5.45;;
68168;SDS011;54981;50.206;15.978;2022-08-21T10:30:48;6.18;;;5.57;;
68168;SDS011;54981;50.206;15.978;2022-08-21T10:33:27;5.22;;;4.65;;
68168;SDS011;54981;50.206;15.978;2022-08-21T10:35:56;7.30;;;5.65;;
68168;SDS011;54981;50.206;15.978;2022-08-21T10:51:51;5.72;;;5.13;;
68168;SDS011;54981;50.206;15.978;2022-08-21T10:57:04;5.95;;;5.07;;
68168;SDS011;54981;50.206;15.978;2022-08-21T10:59:42;6.55;;;4.60;;
68168;SDS011;54981;50.206;15.978;2022-08-21T11:07:16;4.30;;;3.72;;
68168;SDS011;54981;50.206;15.978;2022-08-21T11:09:46;4.18;;;3.80;;
68168;SDS011;54981;50.206;15.978;2022-08-21T11:14:58;4.07;;;3.78;;
68168;SDS011;54981;50.206;15.978;2022-08-21T11:17:38;4.60;;;4.20;;
68168;SDS011;54981;50.206;15.978;2022-08-21T11:20:20;4.13;;;3.78;;
68168;SDS011;54981;50.206;15.978;2022-08-21T11:22:54;4.25;;;3.75;;
68168;SDS011;54981;50.206;15.978;2022-08-21T11:25:27;5.60;;;4.25;;
68168;SDS011;54981;50.206;15.978;2022-08-21T11:28:00;4.25;;;3.75;;
68168;SDS011;54981;50.206;15.978;2022-08-21T11:30:39;4.47;;;4.07;;
68168;SDS011;54981;50.206;15.978;2022-08-21T11:33:30;4.55;;;4.00;;
68168;SDS011;54981;50.206;15.978;2022-08-21T11:35:59;11.63;;;5.40;;
68168;SDS011;54981;50.206;15.978;2022-08-21T11:41:12;5.07;;;4.13;;
68168;SDS011;54981;50.206;15.978;2022-08-21T11:44:09;4.55;;;4.05;;
68168;SDS011;54981;50.206;15.978;2022-08-21T11:52:30;5.28;;;4.47;;
68168;SDS011;54981;50.206;15.978;2022-08-21T12:00:17;4.97;;;4.47;;
68168;SDS011;54981;50.206;15.978;2022-08-21T12:05:39;7.72;;;4.90;;
68168;SDS011;54981;50.206;15.978;2022-08-21T12:10:58;5.17;;;4.67;;
68168;SDS011;54981;50.206;15.978;2022-08-21T12:13:28;8.05;;;5.22;;
68168;SDS011;54981;50.206;15.978;2022-08-21T12:16:06;6.70;;;5.25;;
68168;SDS011;54981;50.206;15.978;2022-08-21T12:18:39;8.70;;;4.82;;
68168;SDS011;54981;50.206;15.978;2022-08-21T12:21:25;7.20;;;5.22;;
68168;SDS011;54981;50.206;15.978;2022-08-21T12:29:21;6.15;;;5.55;;
68168;SDS011;54981;50.206;15.978;2022-08-21T12:32:03;9.65;;;5.35;;
68168;SDS011;54981;50.206;15.978;2022-08-21T12:40:09;6.05;;;4.80;;
68168;SDS011;54981;50.206;15.978;2022-08-21T12:42:57;6.10;;;4.80;;
68168;SDS011;54981;50.206;15.978;2022-08-21T12:45:30;6.28;;;5.65;;
68168;SDS011;54981;50.206;15.978;2022-08-21T12:53:44;8.52;;;5.45;;
68168;SDS011;54981;50.206;15.978;2022-08-21T12:56:17;7.38;;;4.40;;
68168;SDS011;54981;50.206;15.978;2022-08-21T12:58:55;8.75;;;4.70;;
68168;SDS011;54981;50.206;15.978;2022-08-21T13:02:10;5.75;;;4.80;;
68168;SDS011;54981;50.206;15.978;2022-08-21T13:04:19;7.82;;;4.82;;
68168;SDS011;54981;50.206;15.978;2022-08-21T13:06:47;6.95;;;4.78;;
68168;SDS011;54981;50.206;15.978;2022-08-21T13:09:18;6.65;;;5.65;;
68168;SDS011;54981;50.206;15.978;2022-08-21T13:11:45;5.88;;;4.97;;
68168;SDS011;54981;50.206;15.978;2022-08-21T13:14:15;6.90;;;4.72;;
68168;SDS011;54981;50.206;15.978;2022-08-21T13:16:48;6.88;;;4.80;;
68168;SDS011;54981;50.206;15.978;2022-08-21T13:19:19;8.65;;;5.32;;
68168;SDS011;54981;50.206;15.978;2022-08-21T13:21:45;6.95;;;5.03;;
68168;SDS011;54981;50.206;15.978;2022-08-21T13:24:17;6.82;;;4.82;;
68168;SDS011;54981;50.206;15.978;2022-08-21T13:26:44;7.63;;;5.53;;
68168;SDS011;54981;50.206;15.978;2022-08-21T13:29:11;7.70;;;5.22;;
68168;SDS011;54981;50.206;15.978;2022-08-21T13:31:40;6.10;;;4.75;;
68168;SDS011;54981;50.206;15.978;2022-08-21T13:34:07;8.00;;;4.45;;
68168;SDS011;54981;50.206;15.978;2022-08-21T13:36:39;6.72;;;4.68;;
68168;SDS011;54981;50.206;15.978;2022-08-21T13:39:07;6.40;;;4.18;;
68168;SDS011;54981;50.206;15.978;2022-08-21T13:41:35;7.93;;;5.20;;
68168;SDS011;54981;50.206;15.978;2022-08-21T13:44:04;6.85;;;4.82;;
68168;SDS011;54981;50.206;15.978;2022-08-21T13:46:42;9.13;;;4.40;;
68168;SDS011;54981;50.206;15.978;2022-08-21T13:49:08;5.63;;;4.72;;
68168;SDS011;54981;50.206;15.978;2022-08-21T13:51:35;6.63;;;5.15;;
68168;SDS011;54981;50.206;15.978;2022-08-21T13:54:12;5.72;;;4.82;;
68168;SDS011;54981;50.206;15.978;2022-08-21T13:56:45;6.00;;;4.78;;
68168;SDS011;54981;50.206;15.978;2022-08-21T13:59:12;8.55;;;5.05;;
68168;SDS011;54981;50.206;15.978;2022-08-21T14:01:59;6.25;;;4.95;;
68168;SDS011;54981;50.206;15.978;2022-08-21T14:04:50;8.88;;;5.03;;
68168;SDS011;54981;50.206;15.978;2022-08-21T14:07:21;7.72;;;4.57;;
68168;SDS011;54981;50.206;15.978;2022-08-21T14:09:52;5.80;;;4.40;;
68168;SDS011;54981;50.206;15.978;2022-08-21T14:12:24;5.22;;;4.70;;
68168;SDS011;54981;50.206;15.978;2022-08-21T14:17:27;6.38;;;4.78;;
68168;SDS011;54981;50.206;15.978;2022-08-21T14:19:56;8.93;;;4.57;;
68168;SDS011;54981;50.206;15.978;2022-08-21T14:25:12;5.88;;;4.32;;
68168;SDS011;54981;50.206;15.978;2022-08-21T14:27:51;5.75;;;4.30;;
68168;SDS011;54981;50.206;15.978;2022-08-21T14:30:27;5.07;;;4.00;;
68168;SDS011;54981;50.206;15.978;2022-08-21T14:32:56;5.78;;;4.72;;
68168;SDS011;54981;50.206;15.978;2022-08-21T14:35:22;5.97;;;3.78;;
68168;SDS011;54981;50.206;15.978;2022-08-21T14:37:48;6.03;;;4.65;;
68168;SDS011;54981;50.206;15.978;2022-08-21T14:40:17;8.05;;;4.80;;
68168;SDS011;54981;50.206;15.978;2022-08-21T14:42:43;6.50;;;4.82;;
68168;SDS011;54981;50.206;15.978;2022-08-21T14:45:13;6.45;;;4.57;;
68168;SDS011;54981;50.206;15.978;2022-08-21T14:47:40;7.00;;;4.38;;
68168;SDS011;54981;50.206;15.978;2022-08-21T14:50:07;5.20;;;4.00;;
68168;SDS011;54981;50.206;15.978;2022-08-21T14:52:33;5.93;;;4.47;;
68168;SDS011;54981;50.206;15.978;2022-08-21T14:54:59;4.90;;;4.43;;
68168;SDS011;54981;50.206;15.978;2022-08-21T14:57:24;8.00;;;4.65;;
68168;SDS011;54981;50.206;15.978;2022-08-21T14:59:54;8.80;;;5.05;;
68168;SDS011;54981;50.206;15.978;2022-08-21T15:02:19;7.30;;;4.88;;
68168;SDS011;54981;50.206;15.978;2022-08-21T15:04:45;5.75;;;4.38;;
68168;SDS011;54981;50.206;15.978;2022-08-21T15:07:10;6.57;;;4.75;;
68168;SDS011;54981;50.206;15.978;2022-08-21T15:09:35;5.75;;;4.97;;
68168;SDS011;54981;50.206;15.978;2022-08-21T15:12:01;6.15;;;4.47;;
68168;SDS011;54981;50.206;15.978;2022-08-21T15:14:28;6.07;;;4.63;;
68168;SDS011;54981;50.206;15.978;2022-08-21T15:16:55;5.95;;;4.57;;
68168;SDS011;54981;50.206;15.978;2022-08-21T15:19:21;7.05;;;4.28;;
68168;SDS011;54981;50.206;15.978;2022-08-21T15:21:46;5.82;;;4.45;;
68168;SDS011;54981;50.206;15.978;2022-08-21T15:24:12;5.97;;;4.00;;
68168;SDS011;54981;50.206;15.978;2022-08-21T15:26:37;5.50;;;4.20;;
68168;SDS011;54981;50.206;15.978;2022-08-21T15:29:03;7.38;;;4.97;;
68168;SDS011;54981;50.206;15.978;2022-08-21T15:31:31;9.38;;;5.05;;
68168;SDS011;54981;50.206;15.978;2022-08-21T15:33:56;6.03;;;4.50;;
68168;SDS011;54981;50.206;15.978;2022-08-21T15:36:22;7.18;;;4.80;;
68168;SDS011;54981;50.206;15.978;2022-08-21T15:38:48;7.32;;;5.47;;
68168;SDS011;54981;50.206;15.978;2022-08-21T15:41:14;5.88;;;4.95;;
68168;SDS011;54981;50.206;15.978;2022-08-21T15:43:44;6.38;;;4.65;;
68168;SDS011;54981;50.206;15.978;2022-08-21T15:46:13;6.63;;;5.37;;
68168;SDS011;54981;50.206;15.978;2022-08-21T15:48:40;6.38;;;5.03;;
68168;SDS011;54981;50.206;15.978;2022-08-21T15:51:06;5.78;;;4.45;;
68168;SDS011;54981;50.206;15.978;2022-08-21T15:53:32;5.53;;;4.50;;
68168;SDS011;54981;50.206;15.978;2022-08-21T15:56:01;5.32;;;4.82;;
68168;SDS011;54981;50.206;15.978;2022-08-21T15:58:27;7.15;;;5.22;;
68168;SDS011;54981;50.206;15.978;2022-08-21T16:00:52;6.43;;;4.75;;
68168;SDS011;54981;50.206;15.978;2022-08-21T16:03:18;6.57;;;4.47;;